Time;durP1;ratioP1;P1;durP2;ratioP2;P2;SDS_P1;SDS_P2;PMS_P1;PMS_P2;Temp;Humidity;BMP_temperature;BMP_pressure;BME280_temperature;BME280_humidity;BME280_pressure;Samples;Min_cycle;Max_cycle;Signal;HPM_P1;HPM_P2
2021/05/04 00:00:51;;;;;;;4.30;3.80;;;;;;;4.44;74.05;99570.75;5038771;28;20326;-84
2021/05/04 00:03:17;;;;;;;4.23;3.77;;;;;;;4.49;73.38;99564.06;5068980;28;20229;-82
2021/05/04 00:05:43;;;;;;;4.20;3.80;;;;;;;4.51;73.09;99564.72;5063823;28;20465;-82
2021/05/04 00:08:09;;;;;;;4.40;4.00;;;;;;;4.53;73.43;99560.03;5026103;28;20230;-82
2021/05/04 00:10:36;;;;;;;4.47;4.03;;;;;;;4.56;73.44;99565.84;5008884;28;20217;-82
2021/05/04 00:13:03;;;;;;;4.90;4.40;;;;;;;4.58;73.08;99553.19;5060625;28;20669;-82
2021/05/04 00:15:31;;;;;;;4.37;3.97;;;;;;;4.58;72.72;99549.72;5062808;28;20312;-82
2021/05/04 00:17:57;;;;;;;4.43;4.03;;;;;;;4.66;72.20;99558.44;5049045;28;20233;-81
2021/05/04 00:20:24;;;;;;;5.00;4.20;;;;;;;4.72;72.23;99557.66;5012695;28;20295;-82
2021/05/04 00:22:50;;;;;;;4.53;4.07;;;;;;;4.75;71.71;99546.72;5044480;28;20225;-82
2021/05/04 00:25:19;;;;;;;5.03;4.53;;;;;;;4.92;70.88;99544.66;5049834;28;20247;-83
2021/05/04 00:27:47;;;;;;;4.20;3.80;;;;;;;4.85;70.80;99527.84;5047944;28;20237;-82
2021/05/04 00:30:14;;;;;;;4.93;4.43;;;;;;;4.98;70.61;99553.72;5046318;28;20233;-82
2021/05/04 00:32:45;;;;;;;4.93;4.37;;;;;;;4.91;70.31;99531.56;5047267;28;20236;-81
2021/05/04 00:35:12;;;;;;;4.83;4.30;;;;;;;4.97;70.50;99546.75;5046099;28;20324;-82
2021/05/04 00:37:40;;;;;;;6.23;4.53;;;;;;;4.98;70.37;99538.63;5034557;28;20236;-82
2021/05/04 00:40:07;;;;;;;5.07;4.47;;;;;;;4.96;70.18;99529.19;5057116;28;20236;-83
2021/05/04 00:42:33;;;;;;;4.67;4.20;;;;;;;5.01;70.50;99535.59;5052936;28;20221;-81
2021/05/04 00:44:59;;;;;;;5.33;4.27;;;;;;;4.96;71.03;99522.03;5045601;28;20232;-82
2021/05/04 00:47:26;;;;;;;4.47;4.10;;;;;;;4.89;72.01;99521.16;5021512;28;20233;-82
2021/05/04 00:49:53;;;;;;;4.70;4.30;;;;;;;4.74;72.04;99510.56;5025934;28;20707;-82
2021/05/04 00:52:19;;;;;;;4.60;4.17;;;;;;;4.69;72.54;99512.94;5049436;28;20225;-83
2021/05/04 00:54:46;;;;;;;5.77;4.67;;;;;;;4.52;72.91;99502.69;5063417;28;20260;-82
2021/05/04 00:57:13;;;;;;;5.57;4.37;;;;;;;4.53;73.21;99507.81;5057886;28;20222;-83
2021/05/04 00:59:41;;;;;;;4.77;4.37;;;;;;;4.46;73.50;99498.94;5043480;28;20225;-82
2021/05/04 01:02:08;;;;;;;4.80;4.40;;;;;;;4.37;74.19;99497.41;5044505;28;20245;-83
2021/05/04 01:04:38;;;;;;;4.90;3.90;;;;;;;4.29;74.28;99485.03;5043404;28;20226;-82
2021/05/04 01:07:06;;;;;;;5.97;4.40;;;;;;;4.29;74.56;99492.97;5044585;28;20230;-82
2021/05/04 01:09:35;;;;;;;4.40;4.00;;;;;;;4.23;74.76;99471.69;5062135;28;20229;-82
2021/05/04 01:12:02;;;;;;;4.90;4.50;;;;;;;4.27;75.19;99478.28;5063441;28;20233;-82
2021/05/04 01:14:29;;;;;;;5.10;4.63;;;;;;;4.24;74.85;99476.81;5046064;28;20221;-82
2021/05/04 01:16:56;;;;;;;4.83;4.43;;;;;;;4.16;74.95;99474.25;5046159;28;20629;-81
2021/05/04 01:19:24;;;;;;;5.17;4.63;;;;;;;4.11;74.77;99466.00;5024763;28;20226;-83
2021/05/04 01:21:50;;;;;;;4.80;4.30;;;;;;;3.95;75.07;99444.97;5011010;28;20245;-83
2021/05/04 01:24:20;;;;;;;4.73;4.33;;;;;;;3.95;75.42;99456.41;5066001;28;20225;-83
2021/05/04 01:26:47;;;;;;;5.10;4.40;;;;;;;3.85;75.88;99452.38;5036304;28;20225;-83
2021/05/04 01:29:15;;;;;;;4.93;4.43;;;;;;;3.91;76.38;99462.25;5050621;28;21534;-83
2021/05/04 01:31:44;;;;;;;6.83;4.37;;;;;;;3.77;76.37;99450.63;5044321;28;20229;-81
2021/05/04 01:34:13;;;;;;;5.03;4.27;;;;;;;3.76;76.62;99453.44;5055716;28;20223;-83
2021/05/04 01:36:39;;;;;;;4.77;4.30;;;;;;;3.71;76.50;99446.03;5064931;28;20232;-81
2021/05/04 01:39:07;;;;;;;5.40;4.20;;;;;;;3.67;76.89;99447.41;5047616;28;20233;-82
2021/05/04 01:41:34;;;;;;;4.60;4.10;;;;;;;3.70;77.04;99454.16;5045183;28;20232;-82
2021/05/04 01:44:03;;;;;;;4.40;4.00;;;;;;;3.66;76.64;99453.72;5016303;28;20225;-82
2021/05/04 01:46:33;;;;;;;4.50;4.07;;;;;;;3.56;77.30;99450.47;5043106;28;20226;-82
2021/05/04 01:49:07;;;;;;;5.17;4.03;;;;;;;3.49;77.48;99436.31;5054414;28;20253;-82
2021/05/04 01:51:37;;;;;;;4.77;4.30;;;;;;;3.48;77.57;99440.78;5062056;28;20620;-82
2021/05/04 01:54:04;;;;;;;4.90;4.40;;;;;;;3.48;77.45;99442.63;5049999;28;20225;-83
2021/05/04 01:56:33;;;;;;;4.57;4.17;;;;;;;3.42;77.63;99438.03;5028547;28;20222;-82
2021/05/04 01:59:03;;;;;;;4.87;4.30;;;;;;;3.31;77.36;99422.56;5028252;28;20237;-82
2021/05/04 02:01:29;;;;;;;5.00;4.60;;;;;;;3.36;77.26;99421.00;5027528;28;20226;-82
2021/05/04 02:03:56;;;;;;;4.93;4.47;;;;;;;3.36;78.23;99423.66;5035729;28;20225;-82
2021/05/04 02:06:23;;;;;;;5.03;4.07;;;;;;;3.21;77.99;99395.50;5062199;28;20225;-81
2021/05/04 02:08:55;;;;;;;4.80;4.40;;;;;;;3.21;78.15;99398.16;5052575;28;20238;-81
2021/05/04 02:11:23;;;;;;;4.60;4.20;;;;;;;3.29;78.03;99413.97;5027183;28;20226;-81
2021/05/04 02:13:49;;;;;;;4.53;4.13;;;;;;;3.19;78.18;99408.09;5050065;28;20276;-82
2021/05/04 02:16:17;;;;;;;4.80;4.30;;;;;;;3.10;77.83;99383.50;5062923;28;20221;-82
2021/05/04 02:18:44;;;;;;;5.23;4.70;;;;;;;3.06;77.83;99395.47;5055653;28;20226;-82
2021/05/04 02:21:11;;;;;;;5.23;4.73;;;;;;;3.14;78.00;99402.50;5044820;28;20233;-81
2021/05/04 02:23:39;;;;;;;5.07;4.57;;;;;;;3.07;78.80;99403.22;5044499;28;20234;-82
2021/05/04 02:26:09;;;;;;;5.33;4.37;;;;;;;3.01;79.11;99393.34;5043144;28;20225;-81
2021/05/04 02:28:39;;;;;;;5.27;4.80;;;;;;;2.95;79.02;99386.09;5031659;28;20225;-82
2021/05/04 02:31:11;;;;;;;4.60;4.20;;;;;;;3.00;79.72;99386.41;5047610;28;20263;-82
2021/05/04 02:33:40;;;;;;;4.67;3.83;;;;;;;2.88;79.10;99368.47;5041386;28;20236;-82
2021/05/04 02:36:07;;;;;;;5.70;5.10;;;;;;;2.97;79.54;99383.28;5024846;28;20264;-81
2021/05/04 02:38:34;;;;;;;5.20;4.70;;;;;;;2.97;79.70;99383.28;5041070;28;20317;-82
2021/05/04 02:41:02;;;;;;;4.77;4.27;;;;;;;2.90;79.23;99377.88;5023396;28;20230;-82
2021/05/04 02:43:29;;;;;;;4.90;4.50;;;;;;;2.86;80.38;99375.75;5006779;28;20265;-82
2021/05/04 02:45:55;;;;;;;5.97;4.97;;;;;;;2.76;80.22;99360.09;5007173;28;20238;-82
2021/05/04 02:48:25;;;;;;;5.10;4.60;;;;;;;2.64;80.25;99343.84;5007965;28;20234;-81
2021/05/04 02:50:52;;;;;;;5.53;5.03;;;;;;;2.72;80.28;99363.28;5043319;28;20218;-84
2021/05/04 02:53:19;;;;;;;5.00;4.60;;;;;;;2.63;80.24;99355.41;5027605;28;20233;-82
2021/05/04 02:55:45;;;;;;;5.13;4.70;;;;;;;2.57;80.34;99334.94;5026068;28;20233;-82
2021/05/04 02:58:13;;;;;;;5.40;4.90;;;;;;;2.53;80.27;99346.88;5014450;28;20252;-81
2021/05/04 03:00:39;;;;;;;4.90;4.50;;;;;;;2.62;80.92;99347.63;5040388;28;20308;-82
2021/05/04 03:03:07;;;;;;;5.67;4.93;;;;;;;2.55;81.04;99352.81;5043720;28;20226;-82
2021/05/04 03:05:34;;;;;;;4.80;4.30;;;;;;;2.52;81.14;99358.44;5062574;28;20194;-82
2021/05/04 03:08:02;;;;;;;6.40;4.60;;;;;;;2.50;80.76;99339.28;5043983;28;20722;-81
2021/05/04 03:10:29;;;;;;;5.10;4.60;;;;;;;2.42;80.33;99328.78;5050043;28;20221;-83
2021/05/04 03:12:56;;;;;;;5.10;4.60;;;;;;;2.47;80.50;99342.28;5025159;28;20217;-81
2021/05/04 03:15:25;;;;;;;5.80;4.90;;;;;;;2.42;81.43;99331.44;5052921;28;20249;-82
2021/05/04 03:17:52;;;;;;;6.23;4.77;;;;;;;2.44;81.88;99340.00;5060982;28;20233;-81
2021/05/04 03:20:22;;;;;;;5.17;4.40;;;;;;;2.40;81.58;99333.41;5031869;28;20633;-81
2021/05/04 03:22:55;;;;;;;9.70;4.70;;;;;;;2.41;81.44;99337.69;5041368;28;20230;-82
2021/05/04 03:25:23;;;;;;;5.47;4.97;;;;;;;2.36;81.42;99326.81;5034341;28;20276;-81
2021/05/04 03:27:51;;;;;;;5.90;5.30;;;;;;;2.36;81.96;99334.75;5027363;28;20565;-82
2021/05/04 03:30:19;;;;;;;5.33;4.83;;;;;;;2.29;82.28;99315.28;5034849;28;20226;-82
2021/05/04 03:32:48;;;;;;;6.93;5.20;;;;;;;2.29;81.69;99304.72;5021726;28;20224;-81
2021/05/04 03:35:17;;;;;;;5.60;5.00;;;;;;;2.26;81.32;99291.03;5031224;28;20531;-81
2021/05/04 03:37:46;;;;;;;5.77;5.13;;;;;;;2.35;81.81;99311.94;5060029;28;20237;-81
2021/05/04 03:40:13;;;;;;;7.17;5.13;;;;;;;2.36;81.54;99304.84;5061449;28;20229;-82
2021/05/04 03:42:40;;;;;;;7.07;5.13;;;;;;;2.34;81.76;99297.09;5040936;28;20281;-81
2021/05/04 03:45:07;;;;;;;5.60;5.00;;;;;;;2.37;81.76;99298.56;5023946;28;20230;-83
2021/05/04 03:47:36;;;;;;;5.63;5.03;;;;;;;2.51;82.71;99300.47;5025362;28;20230;-82
2021/05/04 03:50:05;;;;;;;6.10;5.40;;;;;;;3.17;81.16;99325.41;5048395;28;20221;-81
2021/05/04 03:52:32;;;;;;;6.87;5.23;;;;;;;3.64;78.88;99331.19;5047002;28;20248;-82
2021/05/04 03:54:58;;;;;;;5.97;4.87;;;;;;;4.09;76.47;99302.81;5062795;28;20244;-81
2021/05/04 03:57:24;;;;;;;5.17;4.73;;;;;;;4.22;74.95;99274.63;5065242;28;20237;-82
2021/05/04 03:59:52;;;;;;;5.53;5.00;;;;;;;4.27;75.39;99277.53;5044449;28;20668;-81
2021/05/04 04:02:20;;;;;;;5.13;4.60;;;;;;;4.12;75.33;99265.31;5023178;28;20234;-82
2021/05/04 04:04:46;;;;;;;5.33;4.83;;;;;;;3.94;75.92;99263.09;5041901;28;20230;-81
2021/05/04 04:07:13;;;;;;;5.90;5.00;;;;;;;3.87;76.67;99268.28;5044203;28;20649;-82
2021/05/04 04:09:41;;;;;;;6.33;5.20;;;;;;;3.86;76.88;99274.63;5042402;28;20256;-82
2021/05/04 04:12:10;;;;;;;5.70;5.10;;;;;;;3.77;77.52;99266.97;5043371;28;20629;-83
2021/05/04 04:14:37;;;;;;;8.30;5.20;;;;;;;3.82;77.64;99275.19;5027753;28;20226;-83
2021/05/04 04:17:05;;;;;;;5.80;5.07;;;;;;;3.86;77.84;99284.41;5059724;28;20239;-83
2021/05/04 04:19:32;;;;;;;5.30;4.80;;;;;;;3.86;77.35;99256.06;5042931;28;20229;-83
2021/05/04 04:22:00;;;;;;;6.47;4.80;;;;;;;3.96;78.12;99267.22;5028725;28;20230;-82
2021/05/04 04:24:28;;;;;;;6.90;5.10;;;;;;;3.98;78.36;99259.88;5042809;28;20253;-82
2021/05/04 04:27:00;;;;;;;7.97;4.63;;;;;;;4.21;77.59;99280.13;5026415;28;20234;-82
2021/05/04 04:29:27;;;;;;;5.47;4.73;;;;;;;4.32;77.58;99269.03;5045481;28;20240;-82
2021/05/04 04:31:54;;;;;;;5.53;5.03;;;;;;;4.50;76.97;99280.03;5019290;28;20245;-82
2021/05/04 04:34:20;;;;;;;5.87;4.77;;;;;;;4.66;76.49;99261.22;5021040;28;20226;-83
2021/05/04 04:36:46;;;;;;;5.73;4.60;;;;;;;4.82;75.25;99260.94;5019153;28;20288;-81
2021/05/04 04:39:13;;;;;;;5.23;4.73;;;;;;;5.05;74.27;99265.19;5030652;28;20232;-81
2021/05/04 04:41:42;;;;;;;6.10;4.30;;;;;;;5.18;73.33;99244.06;5035432;28;20225;-82
2021/05/04 04:44:09;;;;;;;6.63;4.57;;;;;;;5.43;72.75;99278.94;4992023;28;20629;-82
2021/05/04 04:46:42;;;;;;;5.07;4.53;;;;;;;5.52;71.84;99252.00;5035673;28;20236;-81
2021/05/04 04:49:17;;;;;;;4.80;4.30;;;;;;;5.82;71.34;99265.88;5031251;28;20233;-83
2021/05/04 04:51:44;;;;;;;7.63;4.73;;;;;;;6.02;70.44;99263.34;5020313;28;20240;-81
2021/05/04 04:54:11;;;;;;;4.80;4.40;;;;;;;6.06;69.92;99246.78;5008961;28;20232;-82
2021/05/04 04:56:38;;;;;;;5.23;4.27;;;;;;;6.26;69.43;99256.63;5017891;28;20574;-82
2021/05/04 04:59:06;;;;;;;4.47;4.00;;;;;;;6.46;68.24;99254.84;5044958;28;20241;-82
2021/05/04 05:01:33;;;;;;;4.13;3.60;;;;;;;6.58;68.17;99245.22;5005064;28;20336;-82
2021/05/04 05:04:05;;;;;;;5.30;4.00;;;;;;;6.82;67.61;99251.78;5040408;28;20223;-82
2021/05/04 05:06:33;;;;;;;4.33;3.97;;;;;;;6.93;67.11;99246.69;5031432;28;20229;-84
2021/05/04 05:09:02;;;;;;;5.77;3.80;;;;;;;7.07;67.47;99240.34;5059758;28;20519;-82
2021/05/04 05:11:29;;;;;;;5.17;4.33;;;;;;;7.22;66.83;99228.63;5038672;28;20221;-82
2021/05/04 05:13:57;;;;;;;4.70;4.30;;;;;;;7.44;66.58;99235.34;5022944;28;20695;-82
2021/05/04 05:16:24;;;;;;;4.80;4.40;;;;;;;7.67;65.36;99245.53;5039722;28;20233;-84
2021/05/04 05:18:52;;;;;;;5.67;3.90;;;;;;;7.82;64.91;99246.09;5006102;28;20229;-82
2021/05/04 05:21:18;;;;;;;4.63;4.23;;;;;;;8.00;64.50;99243.56;5025280;28;20229;-82
2021/05/04 05:23:45;;;;;;;5.77;4.63;;;;;;;8.13;63.84;99235.50;5045077;28;20247;-82
2021/05/04 05:26:11;;;;;;;4.50;4.10;;;;;;;8.29;63.21;99226.19;5027887;28;20512;-84
2021/05/04 05:28:38;;;;;;;4.70;4.30;;;;;;;8.55;63.43;99233.22;5028156;28;20232;-84
2021/05/04 05:31:05;;;;;;;5.07;4.57;;;;;;;8.63;63.12;99222.28;5012460;28;20301;-84
2021/05/04 05:33:33;;;;;;;4.63;4.23;;;;;;;8.79;62.94;99227.09;5052809;28;20233;-82
2021/05/04 05:35:59;;;;;;;5.73;5.13;;;;;;;8.97;63.56;99231.66;5039972;28;20229;-82
2021/05/04 05:38:33;;;;;;;4.67;4.23;;;;;;;9.01;63.14;99219.50;5043722;28;20225;-83
2021/05/04 05:40:59;;;;;;;6.07;4.97;;;;;;;9.24;62.44;99209.00;5043870;28;20708;-81
2021/05/04 05:43:26;;;;;;;4.83;4.43;;;;;;;9.39;62.38;99214.81;5006849;28;20232;-79
2021/05/04 05:46:10;;;;;;;5.07;3.90;;;;;;;9.58;62.21;99218.31;5043075;28;20245;-78
2021/05/04 05:48:48;;;;;;;5.07;4.50;;;;;;;9.82;62.15;99213.91;5047640;28;20226;-81
2021/05/04 05:51:37;;;;;;;4.90;4.43;;;;;;;9.98;62.11;99219.47;5017534;28;20236;-78
2021/05/04 05:54:32;;;;;;;4.63;4.23;;;;;;;10.21;61.23;99209.94;5037266;28;20232;-80
2021/05/04 05:57:39;;;;;;;4.80;4.33;;;;;;;10.43;60.85;99211.88;5064263;22;20591;-78
2021/05/04 06:00:38;;;;;;;5.90;4.40;;;;;;;10.70;60.44;99212.28;5081149;22;20228;-78
2021/05/04 06:03:39;;;;;;;6.23;4.83;;;;;;;10.91;60.49;99206.38;5068544;28;20221;-77
2021/05/04 06:06:45;;;;;;;5.50;5.00;;;;;;;11.12;59.97;99207.66;5096457;22;20228;-80
2021/05/04 06:09:24;;;;;;;5.47;4.97;;;;;;;11.26;59.85;99205.56;5090442;23;20523;-78
2021/05/04 06:12:19;;;;;;;6.63;5.07;;;;;;;11.52;59.20;99209.63;5101449;28;20231;-78
2021/05/04 06:15:26;;;;;;;5.23;4.73;;;;;;;11.72;58.79;99204.69;5197673;22;20694;-78
2021/05/04 06:18:26;;;;;;;5.33;4.83;;;;;;;11.94;58.66;99197.66;5086172;23;20291;-78
2021/05/04 06:21:09;;;;;;;6.33;5.77;;;;;;;11.91;57.72;99157.84;5102654;22;20208;-79
2021/05/04 06:24:26;;;;;;;5.67;5.10;;;;;;;12.28;56.74;99193.19;5094267;28;20216;-79
2021/05/04 06:28:13;;;;;;;5.33;4.80;;;;;;;12.47;55.85;99183.84;5214737;22;20228;-78
2021/05/04 06:30:52;;;;;;;6.13;5.60;;;;;;;12.71;56.39;99182.66;5096070;22;20213;-78
2021/05/04 06:33:57;;;;;;;9.00;5.60;;;;;;;12.93;55.70;99182.72;5247776;23;20296;-78
2021/05/04 06:37:15;;;;;;;6.03;5.47;;;;;;;13.09;55.51;99183.78;5175498;22;20212;-76
2021/05/04 06:40:31;;;;;;;5.57;5.17;;;;;;;13.33;55.18;99184.44;5082283;22;20209;-77
2021/05/04 06:43:35;;;;;;;5.70;5.20;;;;;;;13.59;53.66;99184.50;5146277;22;20229;-76
2021/05/04 06:46:27;;;;;;;5.43;5.03;;;;;;;13.61;53.32;99163.56;5096945;23;21413;-77
2021/05/04 06:53:15;;;;;;;5.80;5.20;;;;;;;14.06;52.21;99174.03;5133970;22;20233;-78
2021/05/04 06:59:58;;;;;;;5.53;5.03;;;;;;;14.54;50.67;99167.00;4953033;29;20225;-85
2021/05/04 07:02:34;;;;;;;5.57;5.07;;;;;;;14.72;49.92;99165.78;4955814;28;20244;-87
2021/05/04 07:05:03;;;;;;;5.97;4.50;;;;;;;14.91;49.51;99165.16;4953533;29;20305;-85
2021/05/04 07:07:29;;;;;;;6.90;4.63;;;;;;;15.12;48.83;99170.66;4937771;29;20289;-87
2021/05/04 07:09:55;;;;;;;6.00;4.80;;;;;;;15.26;48.85;99167.25;4936403;29;20229;-82
2021/05/04 07:12:22;;;;;;;4.70;4.30;;;;;;;15.41;48.55;99159.25;4936398;29;20230;-89
2021/05/04 07:14:48;;;;;;;4.67;4.27;;;;;;;15.53;47.64;99163.66;4937053;29;20240;-85
2021/05/04 07:17:14;;;;;;;4.57;3.73;;;;;;;15.57;47.04;99135.06;4936498;29;20289;-88
2021/05/04 07:19:42;;;;;;;4.17;3.87;;;;;;;15.90;46.60;99150.03;4947679;29;20287;-88
2021/05/04 07:22:10;;;;;;;3.30;3.00;;;;;;;16.01;46.31;99136.28;4920590;29;20242;-85
2021/05/04 07:24:39;;;;;;;3.27;2.90;;;;;;;16.09;44.24;99140.34;4921181;29;20305;-89
2021/05/04 07:27:06;;;;;;;3.10;2.70;;;;;;;16.19;43.87;99129.56;4936778;29;20290;-86
2021/05/04 07:29:34;;;;;;;2.80;2.60;;;;;;;16.37;43.91;99129.06;4925148;29;20257;-88
2021/05/04 07:32:00;;;;;;;4.50;2.67;;;;;;;16.36;43.86;99124.72;4933013;29;20264;-79
2021/05/04 07:34:27;;;;;;;2.53;2.33;;;;;;;16.51;43.26;99122.03;4927801;29;20236;-89
2021/05/04 07:36:53;;;;;;;2.57;2.37;;;;;;;16.54;43.20;99115.25;4921085;29;20242;-88
2021/05/04 07:39:20;;;;;;;2.30;2.10;;;;;;;16.68;42.96;99109.06;4927861;29;20230;-86
2021/05/04 07:41:46;;;;;;;2.40;2.03;;;;;;;16.82;42.54;99106.63;4901880;29;20232;-88
2021/05/04 07:44:12;;;;;;;2.43;2.23;;;;;;;16.85;42.32;99114.19;4933126;29;20237;-88
2021/05/04 07:46:39;;;;;;;2.73;2.20;;;;;;;17.00;41.12;99105.22;4917618;29;20233;-87
2021/05/04 07:49:09;;;;;;;3.30;2.20;;;;;;;17.17;40.71;99100.31;4948363;28;20657;-87
2021/05/04 07:51:38;;;;;;;2.30;2.10;;;;;;;17.27;41.22;99091.34;4935329;29;20232;-88
2021/05/04 07:54:05;;;;;;;2.57;2.00;;;;;;;17.39;41.50;99095.38;4935416;29;20221;-86
2021/05/04 07:56:31;;;;;;;2.13;2.00;;;;;;;17.56;39.31;99084.19;4952484;28;20240;-88
2021/05/04 07:58:57;;;;;;;2.10;1.90;;;;;;;17.69;39.21;99091.72;4941508;29;20226;-87
2021/05/04 08:01:24;;;;;;;1.87;1.77;;;;;;;17.78;38.50;99087.34;4936068;29;20237;-88
2021/05/04 08:03:50;;;;;;;2.07;1.67;;;;;;;17.95;38.89;99093.22;4920583;29;20226;-85
2021/05/04 08:06:17;;;;;;;1.73;1.63;;;;;;;18.09;38.04;99079.88;4920445;29;20602;-88
2021/05/04 08:08:43;;;;;;;2.10;1.90;;;;;;;18.35;37.46;99091.31;4904785;29;20221;-88
2021/05/04 08:11:10;;;;;;;2.97;1.50;;;;;;;18.55;37.60;99087.66;4901828;29;20234;-86
2021/05/04 08:13:37;;;;;;;2.00;1.70;;;;;;;18.60;36.74;99072.16;4920397;29;20656;-86
2021/05/04 08:16:07;;;;;;;2.23;2.03;;;;;;;18.89;35.24;99088.44;4908672;28;20285;-85
2021/05/04 08:18:34;;;;;;;2.10;2.00;;;;;;;18.95;35.65;99075.59;4956154;28;20316;-87
2021/05/04 08:21:00;;;;;;;2.13;1.70;;;;;;;19.00;35.54;99075.56;4929611;29;20265;-87
2021/05/04 08:23:27;;;;;;;2.40;1.50;;;;;;;18.99;34.99;99074.75;4940757;29;20221;-87
2021/05/04 08:25:54;;;;;;;1.93;1.50;;;;;;;19.07;34.83;99070.59;4939877;29;20233;-88
2021/05/04 08:28:21;;;;;;;2.40;1.70;;;;;;;19.23;34.53;99070.13;4920226;29;20314;-87
2021/05/04 08:30:47;;;;;;;3.93;1.73;;;;;;;19.36;34.13;99055.84;4939747;29;20587;-88
2021/05/04 08:33:14;;;;;;;1.73;1.63;;;;;;;19.43;34.19;99054.69;4939812;29;20225;-86
2021/05/04 08:35:40;;;;;;;2.60;1.60;;;;;;;19.50;32.48;99057.91;4923870;29;20245;-88
2021/05/04 08:38:08;;;;;;;1.93;1.70;;;;;;;19.59;32.77;99056.16;4939418;29;20320;-87
2021/05/04 08:40:34;;;;;;;1.90;1.63;;;;;;;19.65;32.48;99047.63;4932304;29;20225;-84
2021/05/04 08:43:00;;;;;;;2.33;1.67;;;;;;;19.56;32.60;99041.22;4939817;29;20233;-84
2021/05/04 08:45:33;;;;;;;2.07;1.60;;;;;;;19.68;32.24;99038.09;4945533;29;20289;-88
2021/05/04 08:48:01;;;;;;;1.83;1.50;;;;;;;19.77;32.59;99042.59;4955572;28;20233;-85
2021/05/04 08:50:34;;;;;;;2.00;1.40;;;;;;;19.81;33.98;99023.78;4939146;29;20233;-88
2021/05/04 08:53:01;;;;;;;4.27;1.83;;;;;;;19.94;33.22;99028.47;4924790;29;20232;-85
2021/05/04 08:55:28;;;;;;;1.60;1.50;;;;;;;20.02;33.49;99033.22;4923478;29;20230;-87
2021/05/04 08:57:54;;;;;;;1.90;1.70;;;;;;;20.03;35.18;99023.97;4923373;29;20654;-86
2021/05/04 09:00:20;;;;;;;3.13;2.80;;;;;;;20.23;35.55;99031.00;4907680;29;20241;-87
2021/05/04 09:03:25;;;;;;;6.07;2.87;;;;;;;20.28;33.89;99011.06;4923690;29;20271;-85
2021/05/04 09:11:18;;;;;;;1.97;1.60;;;;;;;20.55;33.42;99011.16;4948256;29;20230;-87
2021/05/04 09:13:54;;;;;;;2.20;1.60;;;;;;;20.67;33.29;98997.09;4939123;29;20231;-87
2021/05/04 09:21:57;;;;;;;4.40;1.70;;;;;;;21.13;31.15;99008.72;4924284;29;20233;-85
2021/05/04 09:24:36;;;;;;;3.50;1.60;;;;;;;21.14;31.51;98990.47;4922411;29;20253;-85
2021/05/04 09:27:15;;;;;;;3.73;1.70;;;;;;;21.28;30.79;98991.25;4938906;29;20525;-86
2021/05/04 09:29:55;;;;;;;1.70;1.60;;;;;;;21.20;31.04;98981.06;4920092;29;20250;-87
2021/05/04 09:32:33;;;;;;;3.43;1.57;;;;;;;21.23;32.42;98985.91;4938574;29;20230;-87
2021/05/04 09:35:04;;;;;;;1.60;1.50;;;;;;;21.31;30.40;98983.28;4939003;29;20601;-86
2021/05/04 09:37:32;;;;;;;2.13;1.70;;;;;;;21.48;28.97;98985.34;4938566;29;20238;-87
2021/05/04 09:40:22;;;;;;;3.23;1.60;;;;;;;21.57;29.94;98983.50;4922636;29;20240;-89
2021/05/04 09:43:17;;;;;;;1.70;1.60;;;;;;;21.71;30.35;98967.13;4938200;29;20310;-87
2021/05/04 09:45:50;;;;;;;1.40;1.30;;;;;;;21.76;29.37;98976.00;4907230;29;20294;-87
2021/05/04 09:48:32;;;;;;;2.27;1.87;;;;;;;21.82;30.86;98968.50;4938629;29;20244;-86
2021/05/04 09:51:09;;;;;;;2.97;1.73;;;;;;;21.77;29.72;98969.44;4938364;29;20277;-87
2021/05/04 09:53:48;;;;;;;1.87;1.40;;;;;;;21.69;29.10;98958.47;4922773;29;20574;-86
2021/05/04 09:56:17;;;;;;;1.90;1.33;;;;;;;21.77;28.01;98955.00;4909663;29;20236;-86
2021/05/04 09:58:47;;;;;;;1.70;1.60;;;;;;;21.79;28.75;98953.56;4933405;29;20303;-86
2021/05/04 10:01:17;;;;;;;2.40;1.63;;;;;;;21.88;28.05;98946.25;4955314;28;20231;-87
2021/05/04 10:03:45;;;;;;;3.50;1.50;;;;;;;21.94;29.63;98949.69;4941476;29;20649;-87
2021/05/04 10:06:13;;;;;;;2.10;1.60;;;;;;;21.97;27.67;98951.81;4940850;28;20594;-86
2021/05/04 10:08:41;;;;;;;1.60;1.50;;;;;;;21.98;27.46;98941.72;4941233;29;20710;-87
2021/05/04 10:11:14;;;;;;;3.90;1.70;;;;;;;22.02;27.43;98938.06;4941103;29;20220;-87
2021/05/04 10:13:42;;;;;;;1.53;1.43;;;;;;;22.00;28.95;98939.47;4957265;29;20232;-87
2021/05/04 10:16:10;;;;;;;2.27;1.70;;;;;;;22.05;27.08;98921.06;4956041;28;20313;-86
2021/05/04 10:18:37;;;;;;;2.83;1.60;;;;;;;22.14;27.68;98938.28;4956898;29;20233;-85
2021/05/04 10:21:08;;;;;;;3.73;1.70;;;;;;;22.29;27.80;98928.88;4940864;29;20254;-87
2021/05/04 10:23:36;;;;;;;3.03;1.80;;;;;;;22.24;26.49;98926.28;4957141;29;20233;-87
2021/05/04 10:26:14;;;;;;;4.37;1.50;;;;;;;22.22;26.92;98926.59;4940914;28;20230;-85
2021/05/04 10:28:41;;;;;;;2.90;1.40;;;;;;;22.11;27.26;98906.19;4926280;29;20266;-88
2021/05/04 10:31:08;;;;;;;9.20;5.70;;;;;;;22.31;27.31;98913.81;4940920;29;20335;-88
2021/05/04 10:33:37;;;;;;;2.17;1.80;;;;;;;22.50;26.23;98920.94;4940719;29;20501;-87
2021/05/04 10:36:04;;;;;;;1.60;1.50;;;;;;;22.62;24.98;98908.34;4971352;28;20265;-87
2021/05/04 10:39:03;;;;;;;1.57;1.43;;;;;;;22.80;24.05;98893.66;4941471;29;20231;-90
2021/05/04 10:41:53;;;;;;;1.50;1.30;;;;;;;22.91;23.29;98883.22;4920713;29;20236;-87
2021/05/04 10:44:20;;;;;;;1.80;1.70;;;;;;;22.94;24.52;98881.78;4956553;29;20668;-88
2021/05/04 10:46:46;;;;;;;1.90;1.40;;;;;;;22.99;24.42;98870.72;4957358;28;20256;-88
2021/05/04 10:49:18;;;;;;;2.30;1.20;;;;;;;23.07;25.63;98869.91;4925745;29;20314;-87
2021/05/04 10:51:51;;;;;;;1.93;1.30;;;;;;;23.10;25.24;98872.78;4957062;29;20228;-87
2021/05/04 10:54:19;;;;;;;2.63;1.53;;;;;;;23.22;26.28;98870.25;4940320;28;20257;-87
2021/05/04 10:56:56;;;;;;;2.97;1.43;;;;;;;23.34;24.57;98871.53;4940919;29;20231;-86
2021/05/04 10:59:23;;;;;;;3.43;1.57;;;;;;;23.28;24.21;98859.97;4956752;28;20235;-87
2021/05/04 11:02:08;;;;;;;4.67;1.53;;;;;;;23.50;24.33;98859.84;4938237;29;20239;-88
2021/05/04 11:04:42;;;;;;;2.47;1.50;;;;;;;23.66;23.58;98832.78;4937459;29;20233;-91
2021/05/04 11:07:09;;;;;;;1.70;1.60;;;;;;;23.75;24.47;98832.78;4924554;29;20624;-83
2021/05/04 11:09:39;;;;;;;2.37;1.30;;;;;;;23.74;24.33;98822.97;4952041;28;20232;-85
2021/05/04 11:12:07;;;;;;;1.90;1.30;;;;;;;24.08;23.70;98831.84;4938488;28;20263;-83
2021/05/04 11:14:36;;;;;;;1.55;1.30;;;;;;;24.22;23.34;98812.50;4955150;28;20292;-84
2021/05/04 11:17:14;;;;;;;3.28;1.70;;;;;;;24.54;22.56;98819.31;4952597;29;20242;-83
2021/05/04 11:19:42;;;;;;;1.70;1.60;;;;;;;24.45;23.57;98815.81;4920186;29;20259;-84
2021/05/04 11:22:08;;;;;;;1.52;1.42;;;;;;;24.37;23.41;98805.69;4905715;28;20272;-84
2021/05/04 11:24:38;;;;;;;2.00;1.50;;;;;;;24.48;24.09;98804.19;4938517;29;20244;-83
2021/05/04 11:27:05;;;;;;;1.80;1.60;;;;;;;24.41;23.49;98796.50;4954433;28;20240;-84
2021/05/04 11:29:31;;;;;;;2.47;1.50;;;;;;;24.37;24.65;98803.75;4935780;29;20233;-82
2021/05/04 11:32:13;;;;;;;2.03;1.42;;;;;;;24.34;23.80;98793.47;4936816;29;20239;-83
2021/05/04 11:34:53;;;;;;;2.17;1.58;;;;;;;24.36;23.41;98793.13;4916434;29;20324;-84
2021/05/04 11:37:20;;;;;;;1.42;1.33;;;;;;;24.24;23.52;98787.56;4920012;29;20233;-83
2021/05/04 11:40:00;;;;;;;2.95;1.50;;;;;;;24.40;22.79;98780.41;4955396;28;20256;-83
2021/05/04 11:42:33;;;;;;;5.18;1.58;;;;;;;24.64;22.17;98783.31;4953355;29;20225;-84
2021/05/04 11:45:22;;;;;;;1.95;1.63;;;;;;;24.92;22.53;98772.66;4937148;29;20236;-84
2021/05/04 11:48:03;;;;;;;5.40;1.88;;;;;;;24.89;22.60;98779.63;4946848;29;20235;-83
2021/05/04 11:50:31;;;;;;;2.92;1.90;;;;;;;24.88;23.59;98769.78;4945534;29;20232;-84
2021/05/04 11:52:59;;;;;;;2.58;1.60;;;;;;;24.96;21.78;98757.19;4958296;28;20229;-86
2021/05/04 11:55:28;;;;;;;4.07;1.85;;;;;;;24.96;24.09;98752.47;4926723;29;20285;-85
2021/05/04 11:58:03;;;;;;;2.38;1.50;;;;;;;24.99;23.08;98756.50;4942304;28;20242;-83
2021/05/04 12:00:32;;;;;;;2.08;1.50;;;;;;;25.17;22.72;98754.41;4942173;29;20224;-83
2021/05/04 12:03:13;;;;;;;1.65;1.30;;;;;;;25.55;23.03;98749.53;4958243;28;20232;-80
2021/05/04 12:05:40;;;;;;;1.77;1.40;;;;;;;25.72;22.56;98732.06;4926734;29;20241;-81
2021/05/04 12:08:07;;;;;;;2.30;1.70;;;;;;;25.75;21.86;98753.34;4910512;28;20281;-82
2021/05/04 12:10:49;;;;;;;2.08;1.50;;;;;;;25.47;22.74;98741.38;4943813;28;20276;-82
2021/05/04 12:13:35;;;;;;;1.90;1.70;;;;;;;25.65;22.00;98729.91;4942603;29;20236;-81
2021/05/04 12:16:05;;;;;;;2.55;1.67;;;;;;;25.47;22.47;98719.44;4924322;28;20542;-83